sensor_id;sensor_type;location;lat;lon;timestamp;pressure;altitude;pressure_sealevel;temperature;humidity
69173;BME280;56280;49.662;8.408;2023-03-13T00:01:15;100062.22;;;10.65;69.25
69173;BME280;56280;49.662;8.408;2023-03-13T00:03:41;100071.06;;;10.85;68.87
69173;BME280;56280;49.662;8.408;2023-03-13T00:06:07;100058.38;;;10.98;68.42
69173;BME280;56280;49.662;8.408;2023-03-13T00:08:32;100074.63;;;11.24;68.11
69173;BME280;56280;49.662;8.408;2023-03-13T00:11:04;100062.03;;;11.17;67.94
69173;BME280;56280;49.662;8.408;2023-03-13T00:13:30;100077.72;;;11.29;67.43
69173;BME280;56280;49.662;8.408;2023-03-13T00:16:00;100049.88;;;11.43;67.56
69173;BME280;56280;49.662;8.408;2023-03-13T00:18:25;100048.72;;;11.46;66.79
69173;BME280;56280;49.662;8.408;2023-03-13T00:20:57;100036.69;;;11.52;66.94
69173;BME280;56280;49.662;8.408;2023-03-13T00:23:23;100025.50;;;11.48;66.58
69173;BME280;56280;49.662;8.408;2023-03-13T00:25:55;100045.38;;;11.44;67.50
69173;BME280;56280;49.662;8.408;2023-03-13T00:28:20;100005.38;;;11.16;67.36
69173;BME280;56280;49.662;8.408;2023-03-13T00:30:45;100023.41;;;11.42;67.50
69173;BME280;56280;49.662;8.408;2023-03-13T00:33:10;100026.72;;;11.63;66.33
69173;BME280;56280;49.662;8.408;2023-03-13T00:35:36;99991.09;;;11.37;66.59
69173;BME280;56280;49.662;8.408;2023-03-13T00:38:01;100022.41;;;11.62;66.84
69173;BME280;56280;49.662;8.408;2023-03-13T00:40:26;100000.56;;;11.49;66.53
69173;BME280;56280;49.662;8.408;2023-03-13T00:42:51;100002.81;;;11.54;66.38
69173;BME280;56280;49.662;8.408;2023-03-13T00:45:17;99984.88;;;11.56;66.71
69173;BME280;56280;49.662;8.408;2023-03-13T00:47:42;100007.53;;;11.70;66.81
69173;BME280;56280;49.662;8.408;2023-03-13T00:50:08;100010.06;;;11.71;66.50
69173;BME280;56280;49.662;8.408;2023-03-13T00:52:33;100006.53;;;11.80;66.90
69173;BME280;56280;49.662;8.408;2023-03-13T00:54:58;99993.50;;;11.87;66.30
69173;BME280;56280;49.662;8.408;2023-03-13T00:57:23;99970.53;;;11.76;66.68
69173;BME280;56280;49.662;8.408;2023-03-13T00:59:49;99969.38;;;11.98;66.15
69173;BME280;56280;49.662;8.408;2023-03-13T01:02:14;99972.16;;;12.07;65.66
69173;BME280;56280;49.662;8.408;2023-03-13T01:04:39;99980.53;;;12.12;65.96
69173;BME280;56280;49.662;8.408;2023-03-13T01:07:04;99966.69;;;12.08;66.26
69173;BME280;56280;49.662;8.408;2023-03-13T01:09:30;99976.59;;;12.16;66.17
69173;BME280;56280;49.662;8.408;2023-03-13T01:11:55;99953.66;;;12.05;66.43
69173;BME280;56280;49.662;8.408;2023-03-13T01:14:20;99932.41;;;11.95;66.14
69173;BME280;56280;49.662;8.408;2023-03-13T01:16:46;99958.06;;;12.24;65.55
69173;BME280;56280;49.662;8.408;2023-03-13T01:19:14;99955.94;;;12.28;65.47
69173;BME280;56280;49.662;8.408;2023-03-13T01:21:42;99937.31;;;11.90;66.29
69173;BME280;56280;49.662;8.408;2023-03-13T01:24:07;99942.03;;;11.49;67.84
69173;BME280;56280;49.662;8.408;2023-03-13T01:26:33;99921.78;;;11.38;68.15
69173;BME280;56280;49.662;8.408;2023-03-13T01:28:59;99912.13;;;11.37;68.23
69173;BME280;56280;49.662;8.408;2023-03-13T01:31:29;99933.47;;;11.65;68.29
69173;BME280;56280;49.662;8.408;2023-03-13T01:33:57;99905.34;;;11.62;67.47
69173;BME280;56280;49.662;8.408;2023-03-13T01:36:23;99907.50;;;11.77;66.28
69173;BME280;56280;49.662;8.408;2023-03-13T01:38:50;99922.06;;;11.82;66.86
69173;BME280;56280;49.662;8.408;2023-03-13T01:41:16;99913.25;;;11.92;66.80
69173;BME280;56280;49.662;8.408;2023-03-13T01:43:43;99907.81;;;11.74;66.92
69173;BME280;56280;49.662;8.408;2023-03-13T01:51:52;99893.59;;;11.93;67.12
69173;BME280;56280;49.662;8.408;2023-03-13T01:54:24;99895.91;;;12.06;67.16
69173;BME280;56280;49.662;8.408;2023-03-13T01:56:57;99868.63;;;11.66;68.88
69173;BME280;56280;49.662;8.408;2023-03-13T01:59:27;99873.56;;;11.51;69.79
69173;BME280;56280;49.662;8.408;2023-03-13T02:01:56;99888.50;;;11.24;71.45
69173;BME280;56280;49.662;8.408;2023-03-13T02:04:23;99882.38;;;11.14;72.07
69173;BME280;56280;49.662;8.408;2023-03-13T02:06:53;99871.00;;;11.22;72.18
69173;BME280;56280;49.662;8.408;2023-03-13T02:09:24;99825.13;;;11.20;71.72
69173;BME280;56280;49.662;8.408;2023-03-13T02:14:36;99862.09;;;11.03;72.92
69173;BME280;56280;49.662;8.408;2023-03-13T02:17:03;99834.53;;;11.04;72.68
69173;BME280;56280;49.662;8.408;2023-03-13T02:19:39;99850.69;;;11.40;71.84
69173;BME280;56280;49.662;8.408;2023-03-13T02:24:57;99841.06;;;11.57;69.91
69173;BME280;56280;49.662;8.408;2023-03-13T02:27:25;99815.56;;;11.27;70.94
69173;BME280;56280;49.662;8.408;2023-03-13T02:29:50;99808.69;;;11.34;70.55
69173;BME280;56280;49.662;8.408;2023-03-13T02:32:17;99783.47;;;11.01;71.74
69173;BME280;56280;49.662;8.408;2023-03-13T02:34:43;99808.59;;;11.26;71.68
69173;BME280;56280;49.662;8.408;2023-03-13T02:37:12;99814.94;;;11.43;70.99
69173;BME280;56280;49.662;8.408;2023-03-13T02:39:41;99807.88;;;11.34;70.95
69173;BME280;56280;49.662;8.408;2023-03-13T02:42:10;99819.00;;;11.47;71.49
69173;BME280;56280;49.662;8.408;2023-03-13T02:44:38;99774.47;;;11.21;71.60
69173;BME280;56280;49.662;8.408;2023-03-13T02:47:04;99789.84;;;11.27;71.62
69173;BME280;56280;49.662;8.408;2023-03-13T02:49:29;99768.38;;;11.39;70.88
69173;BME280;56280;49.662;8.408;2023-03-13T02:51:57;99788.88;;;11.56;70.89
69173;BME280;56280;49.662;8.408;2023-03-13T02:54:29;99791.44;;;11.48;70.73
69173;BME280;56280;49.662;8.408;2023-03-13T02:56:57;99760.59;;;11.27;71.89
69173;BME280;56280;49.662;8.408;2023-03-13T02:59:25;99776.94;;;11.60;70.58
69173;BME280;56280;49.662;8.408;2023-03-13T03:01:50;99745.38;;;11.20;71.32
69173;BME280;56280;49.662;8.408;2023-03-13T03:04:20;99730.03;;;11.31;70.66
69173;BME280;56280;49.662;8.408;2023-03-13T03:06:46;99762.63;;;11.89;70.10
69173;BME280;56280;49.662;8.408;2023-03-13T03:09:12;99757.72;;;11.66;70.33
69173;BME280;56280;49.662;8.408;2023-03-13T03:11:37;99757.25;;;11.53;70.58
69173;BME280;56280;49.662;8.408;2023-03-13T03:14:03;99746.91;;;11.50;70.35
69173;BME280;56280;49.662;8.408;2023-03-13T03:16:28;99754.09;;;11.67;71.05
69173;BME280;56280;49.662;8.408;2023-03-13T03:18:53;99743.00;;;11.44;71.25
69173;BME280;56280;49.662;8.408;2023-03-13T03:21:19;99720.50;;;11.39;71.33
69173;BME280;56280;49.662;8.408;2023-03-13T03:23:45;99730.66;;;11.53;70.92
69173;BME280;56280;49.662;8.408;2023-03-13T03:26:11;99744.72;;;11.63;71.23
69173;BME280;56280;49.662;8.408;2023-03-13T03:28:36;99726.16;;;11.26;72.01
69173;BME280;56280;49.662;8.408;2023-03-13T03:31:08;99754.28;;;11.56;71.44
69173;BME280;56280;49.662;8.408;2023-03-13T03:33:34;99758.66;;;11.47;71.99
69173;BME280;56280;49.662;8.408;2023-03-13T03:36:02;99754.69;;;11.61;72.37
69173;BME280;56280;49.662;8.408;2023-03-13T03:38:28;99755.28;;;11.73;71.93
69173;BME280;56280;49.662;8.408;2023-03-13T03:40:53;99705.47;;;11.47;72.20
69173;BME280;56280;49.662;8.408;2023-03-13T03:43:18;99740.19;;;11.46;73.43
69173;BME280;56280;49.662;8.408;2023-03-13T03:45:44;99743.22;;;11.61;73.18
69173;BME280;56280;49.662;8.408;2023-03-13T03:48:09;99761.41;;;11.56;74.73
69173;BME280;56280;49.662;8.408;2023-03-13T03:50:34;99767.16;;;11.51;75.55
69173;BME280;56280;49.662;8.408;2023-03-13T03:52:59;99757.59;;;11.40;76.87
69173;BME280;56280;49.662;8.408;2023-03-13T03:55:25;99761.41;;;11.56;77.63
69173;BME280;56280;49.662;8.408;2023-03-13T03:57:50;99747.44;;;11.54;77.83
69173;BME280;56280;49.662;8.408;2023-03-13T04:00:16;99714.91;;;11.14;79.15
69173;BME280;56280;49.662;8.408;2023-03-13T04:02:43;99737.81;;;11.43;78.89
69173;BME280;56280;49.662;8.408;2023-03-13T04:05:08;99744.00;;;11.43;79.41
69173;BME280;56280;49.662;8.408;2023-03-13T04:07:34;99753.72;;;11.53;80.38
69173;BME280;56280;49.662;8.408;2023-03-13T04:09:59;99710.84;;;11.38;79.64
69173;BME280;56280;49.662;8.408;2023-03-13T04:12:24;99744.91;;;11.52;80.78
69173;BME280;56280;49.662;8.408;2023-03-13T04:14:50;99744.84;;;11.62;81.16
69173;BME280;56280;49.662;8.408;2023-03-13T04:17:15;99722.22;;;11.58;81.13
69173;BME280;56280;49.662;8.408;2023-03-13T04:19:40;99739.25;;;11.65;81.02
69173;BME280;56280;49.662;8.408;2023-03-13T04:22:06;99729.41;;;11.47;82.09
69173;BME280;56280;49.662;8.408;2023-03-13T04:24:31;99709.72;;;11.40;81.85
69173;BME280;56280;49.662;8.408;2023-03-13T04:26:56;99729.75;;;11.62;81.81
69173;BME280;56280;49.662;8.408;2023-03-13T04:29:22;99713.13;;;11.32;82.82
69173;BME280;56280;49.662;8.408;2023-03-13T04:31:47;99687.25;;;11.25;83.02
69173;BME280;56280;49.662;8.408;2023-03-13T04:34:12;99702.72;;;11.11;83.66
69173;BME280;56280;49.662;8.408;2023-03-13T04:36:37;99731.88;;;11.31;84.38
69173;BME280;56280;49.662;8.408;2023-03-13T04:39:03;99711.00;;;11.54;82.98
69173;BME280;56280;49.662;8.408;2023-03-13T04:41:28;99720.03;;;11.25;83.27
69173;BME280;56280;49.662;8.408;2023-03-13T04:43:54;99732.50;;;11.43;83.14
69173;BME280;56280;49.662;8.408;2023-03-13T04:46:19;99734.81;;;11.56;83.38
69173;BME280;56280;49.662;8.408;2023-03-13T04:48:44;99734.44;;;11.50;83.44
69173;BME280;56280;49.662;8.408;2023-03-13T04:51:11;99729.84;;;11.71;82.57
69173;BME280;56280;49.662;8.408;2023-03-13T04:53:36;99713.44;;;11.47;83.40
69173;BME280;56280;49.662;8.408;2023-03-13T04:56:01;99692.06;;;11.39;83.33
69173;BME280;56280;49.662;8.408;2023-03-13T04:58:27;99723.50;;;11.54;83.18
69173;BME280;56280;49.662;8.408;2023-03-13T05:00:52;99717.38;;;11.25;84.87
69173;BME280;56280;49.662;8.408;2023-03-13T05:03:18;99690.88;;;11.34;83.95
69173;BME280;56280;49.662;8.408;2023-03-13T05:05:43;99718.13;;;11.36;84.52
69173;BME280;56280;49.662;8.408;2023-03-13T05:08:08;99703.97;;;11.63;83.49
69173;BME280;56280;49.662;8.408;2023-03-13T05:10:35;99709.59;;;11.60;84.33
69173;BME280;56280;49.662;8.408;2023-03-13T05:13:00;99689.56;;;11.38;84.38
69173;BME280;56280;49.662;8.408;2023-03-13T05:15:25;99685.09;;;11.38;85.17
69173;BME280;56280;49.662;8.408;2023-03-13T05:17:51;99706.41;;;11.56;84.81
69173;BME280;56280;49.662;8.408;2023-03-13T05:20:16;99690.91;;;11.70;84.18
69173;BME280;56280;49.662;8.408;2023-03-13T05:22:41;99692.19;;;11.65;84.67
69173;BME280;56280;49.662;8.408;2023-03-13T05:25:07;99672.06;;;11.81;84.32
69173;BME280;56280;49.662;8.408;2023-03-13T05:27:32;99671.75;;;11.66;84.67
69173;BME280;56280;49.662;8.408;2023-03-13T05:29:57;99691.06;;;11.86;83.79
69173;BME280;56280;49.662;8.408;2023-03-13T05:32:23;99668.94;;;11.85;83.77
69173;BME280;56280;49.662;8.408;2023-03-13T05:34:48;99656.16;;;11.89;83.37
69173;BME280;56280;49.662;8.408;2023-03-13T05:37:13;99677.53;;;11.97;84.04
69173;BME280;56280;49.662;8.408;2023-03-13T05:39:38;99649.34;;;11.86;83.59
69173;BME280;56280;49.662;8.408;2023-03-13T05:42:04;99669.63;;;11.88;84.03
69173;BME280;56280;49.662;8.408;2023-03-13T05:44:29;99641.09;;;11.80;83.92
69173;BME280;56280;49.662;8.408;2023-03-13T05:46:55;99662.34;;;12.08;83.63
69173;BME280;56280;49.662;8.408;2023-03-13T05:49:20;99673.72;;;12.18;83.50
69173;BME280;56280;49.662;8.408;2023-03-13T05:51:45;99649.81;;;12.26;83.03
69173;BME280;56280;49.662;8.408;2023-03-13T05:54:10;99639.53;;;12.31;82.70
69173;BME280;56280;49.662;8.408;2023-03-13T05:56:36;99640.59;;;12.38;82.14
69173;BME280;56280;49.662;8.408;2023-03-13T05:59:01;99655.38;;;12.59;81.26
69173;BME280;56280;49.662;8.408;2023-03-13T06:01:26;99635.91;;;12.67;80.69
69173;BME280;56280;49.662;8.408;2023-03-13T06:03:52;99630.13;;;12.45;80.85
69173;BME280;56280;49.662;8.408;2023-03-13T06:06:17;99622.16;;;12.45;81.22
69173;BME280;56280;49.662;8.408;2023-03-13T06:08:42;99603.72;;;12.26;81.37
69173;BME280;56280;49.662;8.408;2023-03-13T06:11:08;99662.66;;;12.57;81.61
69173;BME280;56280;49.662;8.408;2023-03-13T06:13:33;99648.63;;;12.47;81.37
69173;BME280;56280;49.662;8.408;2023-03-13T06:15:58;99657.97;;;12.51;81.53
69173;BME280;56280;49.662;8.408;2023-03-13T06:18:24;99630.56;;;12.32;82.20
69173;BME280;56280;49.662;8.408;2023-03-13T06:20:55;99674.34;;;12.56;81.62
69173;BME280;56280;49.662;8.408;2023-03-13T06:23:24;99661.28;;;12.79;81.25
69173;BME280;56280;49.662;8.408;2023-03-13T06:25:50;99663.03;;;12.97;80.07
69173;BME280;56280;49.662;8.408;2023-03-13T06:28:16;99652.63;;;12.77;80.89
69173;BME280;56280;49.662;8.408;2023-03-13T06:30:42;99643.19;;;12.91;80.24
69173;BME280;56280;49.662;8.408;2023-03-13T06:33:07;99619.91;;;13.01;80.11
69173;BME280;56280;49.662;8.408;2023-03-13T06:35:33;99624.97;;;12.78;81.05
69173;BME280;56280;49.662;8.408;2023-03-13T06:38:01;99607.31;;;12.43;82.16
69173;BME280;56280;49.662;8.408;2023-03-13T06:40:26;99629.56;;;13.02;81.03
69173;BME280;56280;49.662;8.408;2023-03-13T06:42:51;99616.56;;;12.99;80.39
69173;BME280;56280;49.662;8.408;2023-03-13T06:45:18;99630.91;;;13.06;80.40
69173;BME280;56280;49.662;8.408;2023-03-13T06:47:43;99628.28;;;13.14;80.30
69173;BME280;56280;49.662;8.408;2023-03-13T06:50:09;99615.88;;;12.97;81.31
69173;BME280;56280;49.662;8.408;2023-03-13T06:52:34;99615.34;;;12.85;82.82
69173;BME280;56280;49.662;8.408;2023-03-13T06:55:02;99602.75;;;13.04;82.15
69173;BME280;56280;49.662;8.408;2023-03-13T06:57:28;99593.06;;;12.94;82.26
69173;BME280;56280;49.662;8.408;2023-03-13T06:59:53;99588.25;;;12.98;82.39
69173;BME280;56280;49.662;8.408;2023-03-13T07:02:18;99610.13;;;13.18;82.07
69173;BME280;56280;49.662;8.408;2023-03-13T07:04:44;99567.16;;;13.38;81.10
69173;BME280;56280;49.662;8.408;2023-03-13T07:07:10;99585.03;;;13.45;80.92
69173;BME280;56280;49.662;8.408;2023-03-13T07:09:36;99580.72;;;13.69;79.62
69173;BME280;56280;49.662;8.408;2023-03-13T07:12:01;99595.69;;;13.62;79.76
69173;BME280;56280;49.662;8.408;2023-03-13T07:14:27;99604.72;;;13.69;79.86
69173;BME280;56280;49.662;8.408;2023-03-13T07:16:53;99592.53;;;13.50;79.85
69173;BME280;56280;49.662;8.408;2023-03-13T07:19:18;99598.84;;;13.32;81.20
69173;BME280;56280;49.662;8.408;2023-03-13T07:21:43;99624.41;;;13.76;79.85
69173;BME280;56280;49.662;8.408;2023-03-13T07:24:09;99623.09;;;13.72;79.70
69173;BME280;56280;49.662;8.408;2023-03-13T07:26:34;99601.06;;;13.70;79.20
69173;BME280;56280;49.662;8.408;2023-03-13T07:28:59;99585.72;;;13.80;78.64
69173;BME280;56280;49.662;8.408;2023-03-13T07:31:25;99593.06;;;13.95;78.03
69173;BME280;56280;49.662;8.408;2023-03-13T07:33:52;99588.88;;;13.67;78.44
69173;BME280;56280;49.662;8.408;2023-03-13T07:36:20;99615.56;;;14.00;78.04
69173;BME280;56280;49.662;8.408;2023-03-13T07:38:47;99615.06;;;14.05;77.37
69173;BME280;56280;49.662;8.408;2023-03-13T07:41:12;99634.78;;;14.12;77.62
69173;BME280;56280;49.662;8.408;2023-03-13T07:43:38;99645.63;;;14.11;77.66
69173;BME280;56280;49.662;8.408;2023-03-13T07:46:07;99635.25;;;14.16;77.57
69173;BME280;56280;49.662;8.408;2023-03-13T07:48:42;99629.06;;;13.99;77.42
69173;BME280;56280;49.662;8.408;2023-03-13T07:51:16;99592.22;;;13.70;77.50
69173;BME280;56280;49.662;8.408;2023-03-13T07:53:45;99527.00;;;13.39;77.09
69173;BME280;56280;49.662;8.408;2023-03-13T07:56:16;99647.09;;;14.21;76.70
69173;BME280;56280;49.662;8.408;2023-03-13T07:58:42;99633.09;;;13.95;77.65
69173;BME280;56280;49.662;8.408;2023-03-13T08:01:20;99587.19;;;13.75;77.69
69173;BME280;56280;49.662;8.408;2023-03-13T08:03:46;99639.09;;;14.05;77.87
69173;BME280;56280;49.662;8.408;2023-03-13T08:06:16;99634.78;;;14.12;76.85
69173;BME280;56280;49.662;8.408;2023-03-13T08:08:42;99633.22;;;14.34;76.74
69173;BME280;56280;49.662;8.408;2023-03-13T08:11:10;99619.06;;;14.09;77.12
69173;BME280;56280;49.662;8.408;2023-03-13T08:13:35;99610.41;;;14.07;76.89
69173;BME280;56280;49.662;8.408;2023-03-13T08:16:09;99650.03;;;14.68;75.91
69173;BME280;56280;49.662;8.408;2023-03-13T08:18:36;99657.84;;;14.86;74.27
69173;BME280;56280;49.662;8.408;2023-03-13T08:21:07;99617.19;;;14.34;75.61
69173;BME280;56280;49.662;8.408;2023-03-13T08:23:33;99650.06;;;14.51;75.46
69173;BME280;56280;49.662;8.408;2023-03-13T08:26:04;99660.75;;;14.51;75.73
69173;BME280;56280;49.662;8.408;2023-03-13T08:28:30;99637.09;;;14.15;76.57
69173;BME280;56280;49.662;8.408;2023-03-13T08:30:55;99636.75;;;14.27;76.06
69173;BME280;56280;49.662;8.408;2023-03-13T08:33:20;99638.69;;;14.57;74.97
69173;BME280;56280;49.662;8.408;2023-03-13T08:35:46;99643.72;;;14.52;75.87
69173;BME280;56280;49.662;8.408;2023-03-13T08:38:11;99664.25;;;14.60;75.43
69173;BME280;56280;49.662;8.408;2023-03-13T08:40:36;99637.53;;;14.52;74.90
69173;BME280;56280;49.662;8.408;2023-03-13T08:43:01;99648.06;;;14.45;75.43
69173;BME280;56280;49.662;8.408;2023-03-13T08:45:27;99648.72;;;14.47;75.38
69173;BME280;56280;49.662;8.408;2023-03-13T08:47:52;99666.75;;;14.62;75.10
69173;BME280;56280;49.662;8.408;2023-03-13T08:50:18;99630.69;;;14.66;74.64
69173;BME280;56280;49.662;8.408;2023-03-13T08:52:44;99675.69;;;14.93;74.29
69173;BME280;56280;49.662;8.408;2023-03-13T08:55:10;99644.03;;;14.66;75.04
69173;BME280;56280;49.662;8.408;2023-03-13T08:57:35;99652.94;;;14.33;76.16
69173;BME280;56280;49.662;8.408;2023-03-13T09:00:00;99633.06;;;14.19;76.57
69173;BME280;56280;49.662;8.408;2023-03-13T09:02:26;99657.09;;;14.52;76.24
69173;BME280;56280;49.662;8.408;2023-03-13T09:04:51;99657.91;;;14.69;75.07
69173;BME280;56280;49.662;8.408;2023-03-13T09:07:16;99646.22;;;14.54;75.33
69173;BME280;56280;49.662;8.408;2023-03-13T09:09:42;99669.75;;;14.75;74.44
69173;BME280;56280;49.662;8.408;2023-03-13T09:12:08;99628.84;;;14.50;73.98
69173;BME280;56280;49.662;8.408;2023-03-13T09:14:33;99652.56;;;14.69;74.58
69173;BME280;56280;49.662;8.408;2023-03-13T09:16:58;99653.75;;;14.67;74.04
69173;BME280;56280;49.662;8.408;2023-03-13T09:19:24;99644.91;;;14.41;75.60
69173;BME280;56280;49.662;8.408;2023-03-13T09:21:49;99660.06;;;14.74;74.89
69173;BME280;56280;49.662;8.408;2023-03-13T09:24:14;99626.34;;;14.65;74.27
69173;BME280;56280;49.662;8.408;2023-03-13T09:26:40;99661.06;;;14.73;74.47
69173;BME280;56280;49.662;8.408;2023-03-13T09:29:06;99649.56;;;15.12;73.54
69173;BME280;56280;49.662;8.408;2023-03-13T09:31:32;99646.00;;;15.51;72.03
69173;BME280;56280;49.662;8.408;2023-03-13T09:33:58;99642.56;;;15.42;72.47
69173;BME280;56280;49.662;8.408;2023-03-13T09:36:24;99604.03;;;15.20;71.94
69173;BME280;56280;49.662;8.408;2023-03-13T09:38:51;99620.03;;;15.28;72.91
69173;BME280;56280;49.662;8.408;2023-03-13T09:41:37;99602.59;;;15.32;71.79
69173;BME280;56280;49.662;8.408;2023-03-13T09:49:38;99605.78;;;15.82;71.21
69173;BME280;56280;49.662;8.408;2023-03-13T09:52:14;99613.38;;;15.79;71.45
69173;BME280;56280;49.662;8.408;2023-03-13T09:54:48;99590.78;;;15.96;70.36
69173;BME280;56280;49.662;8.408;2023-03-13T09:57:27;99594.63;;;16.32;69.72
69173;BME280;56280;49.662;8.408;2023-03-13T10:00:05;99588.72;;;16.81;68.26
69173;BME280;56280;49.662;8.408;2023-03-13T10:02:36;99597.25;;;16.70;68.31
69173;BME280;56280;49.662;8.408;2023-03-13T10:05:15;99595.91;;;16.81;67.99
69173;BME280;56280;49.662;8.408;2023-03-13T10:07:43;99593.53;;;16.56;68.14
69173;BME280;56280;49.662;8.408;2023-03-13T10:10:14;99579.50;;;16.54;67.72
69173;BME280;56280;49.662;8.408;2023-03-13T10:12:45;99595.53;;;16.84;67.64
69173;BME280;56280;49.662;8.408;2023-03-13T10:17:42;99563.19;;;16.70;68.09
69173;BME280;56280;49.662;8.408;2023-03-13T10:20:30;99583.66;;;16.86;68.36
69173;BME280;56280;49.662;8.408;2023-03-13T10:25:41;99557.72;;;16.78;67.37
69173;BME280;56280;49.662;8.408;2023-03-13T10:28:12;99563.88;;;16.87;67.49
69173;BME280;56280;49.662;8.408;2023-03-13T10:30:43;99535.56;;;16.55;67.50
69173;BME280;56280;49.662;8.408;2023-03-13T10:35:40;99546.19;;;17.14;67.20
69173;BME280;56280;49.662;8.408;2023-03-13T10:38:19;99555.84;;;17.30;66.17
69173;BME280;56280;49.662;8.408;2023-03-13T10:40:56;99538.09;;;17.29;65.46
69173;BME280;56280;49.662;8.408;2023-03-13T10:43:24;99555.94;;;17.37;66.10
69173;BME280;56280;49.662;8.408;2023-03-13T10:45:51;99523.97;;;17.42;65.31
69173;BME280;56280;49.662;8.408;2023-03-13T10:48:25;99509.78;;;17.48;64.52
69173;BME280;56280;49.662;8.408;2023-03-13T10:50:53;99537.25;;;17.50;64.28
69173;BME280;56280;49.662;8.408;2023-03-13T10:53:24;99504.13;;;17.43;64.52
69173;BME280;56280;49.662;8.408;2023-03-13T10:56:24;99529.75;;;17.89;63.95
69173;BME280;56280;49.662;8.408;2023-03-13T10:58:56;99484.59;;;17.78;62.18
69173;BME280;56280;49.662;8.408;2023-03-13T11:01:28;99494.94;;;17.53;62.73
69173;BME280;56280;49.662;8.408;2023-03-13T11:03:57;99477.81;;;17.54;64.02
69173;BME280;56280;49.662;8.408;2023-03-13T11:06:29;99500.75;;;17.84;62.99
69173;BME280;56280;49.662;8.408;2023-03-13T11:11:30;99494.94;;;18.44;61.86
69173;BME280;56280;49.662;8.408;2023-03-13T11:14:15;99463.25;;;18.39;60.50
69173;BME280;56280;49.662;8.408;2023-03-13T11:16:49;99477.66;;;18.25;61.11
69173;BME280;56280;49.662;8.408;2023-03-13T11:27:36;99458.69;;;18.88;60.15
69173;BME280;56280;49.662;8.408;2023-03-13T11:30:21;99442.38;;;18.97;60.16
69173;BME280;56280;49.662;8.408;2023-03-13T11:32:59;99428.91;;;18.97;59.89
69173;BME280;56280;49.662;8.408;2023-03-13T11:35:45;99423.91;;;18.87;60.65
69173;BME280;56280;49.662;8.408;2023-03-13T11:38:37;99426.75;;;18.78;61.00
69173;BME280;56280;49.662;8.408;2023-03-13T11:44:03;99414.16;;;18.79;60.94
69173;BME280;56280;49.662;8.408;2023-03-13T11:55:20;99374.66;;;19.06;60.02
69173;BME280;56280;49.662;8.408;2023-03-13T11:58:09;99376.94;;;19.16;59.30
69173;BME280;56280;49.662;8.408;2023-03-13T12:00:44;99373.22;;;19.10;59.22
69173;BME280;56280;49.662;8.408;2023-03-13T12:03:41;99360.19;;;19.21;58.80
69173;BME280;56280;49.662;8.408;2023-03-13T12:08:52;99357.69;;;18.92;60.14
69173;BME280;56280;49.662;8.408;2023-03-13T12:11:28;99326.81;;;19.15;59.47
69173;BME280;56280;49.662;8.408;2023-03-13T12:14:02;99334.88;;;19.28;59.29
69173;BME280;56280;49.662;8.408;2023-03-13T12:16:40;99349.63;;;19.19;58.45
69173;BME280;56280;49.662;8.408;2023-03-13T12:19:13;99341.75;;;18.98;58.72
69173;BME280;56280;49.662;8.408;2023-03-13T12:21:51;99322.47;;;19.14;58.04
69173;BME280;56280;49.662;8.408;2023-03-13T12:24:42;99322.03;;;19.44;58.25
69173;BME280;56280;49.662;8.408;2023-03-13T12:27:32;99253.16;;;18.89;57.13
69173;BME280;56280;49.662;8.408;2023-03-13T12:30:00;99303.84;;;19.06;57.70
69173;BME280;56280;49.662;8.408;2023-03-13T12:32:37;99297.00;;;19.17;57.93
69173;BME280;56280;49.662;8.408;2023-03-13T12:37:37;99288.97;;;18.97;57.66
69173;BME280;56280;49.662;8.408;2023-03-13T12:40:25;99293.72;;;19.15;57.27
69173;BME280;56280;49.662;8.408;2023-03-13T12:43:08;99292.22;;;19.19;57.64
69173;BME280;56280;49.662;8.408;2023-03-13T12:45:44;99290.81;;;19.09;56.28
69173;BME280;56280;49.662;8.408;2023-03-13T12:48:22;99276.72;;;18.61;57.31
69173;BME280;56280;49.662;8.408;2023-03-13T12:53:42;99252.94;;;18.71;57.65
69173;BME280;56280;49.662;8.408;2023-03-13T12:59:02;99220.44;;;18.59;56.89
69173;BME280;56280;49.662;8.408;2023-03-13T13:01:39;99231.22;;;18.86;57.56
69173;BME280;56280;49.662;8.408;2023-03-13T13:04:09;99224.16;;;19.05;56.35
69173;BME280;56280;49.662;8.408;2023-03-13T13:06:55;99232.44;;;18.63;57.03
69173;BME280;56280;49.662;8.408;2023-03-13T13:11:49;99213.56;;;19.10;56.60
69173;BME280;56280;49.662;8.408;2023-03-13T13:16:53;99191.81;;;19.18;56.91
69173;BME280;56280;49.662;8.408;2023-03-13T13:24:59;99177.19;;;19.46;55.77
69173;BME280;56280;49.662;8.408;2023-03-13T13:27:45;99157.56;;;19.39;55.65
69173;BME280;56280;49.662;8.408;2023-03-13T13:35:23;99119.53;;;19.92;53.98
69173;BME280;56280;49.662;8.408;2023-03-13T13:37:49;99123.75;;;19.81;54.54
69173;BME280;56280;49.662;8.408;2023-03-13T13:42:57;99071.91;;;20.11;54.12
69173;BME280;56280;49.662;8.408;2023-03-13T13:47:50;99103.50;;;20.48;53.59
69173;BME280;56280;49.662;8.408;2023-03-13T13:50:24;99087.44;;;20.16;53.36
69173;BME280;56280;49.662;8.408;2023-03-13T13:52:50;99094.25;;;19.93;54.38
69173;BME280;56280;49.662;8.408;2023-03-13T13:58:04;99087.09;;;19.80;55.16
69173;BME280;56280;49.662;8.408;2023-03-13T14:00:47;99084.13;;;19.57;55.87
69173;BME280;56280;49.662;8.408;2023-03-13T14:03:24;99052.50;;;19.77;54.92
69173;BME280;56280;49.662;8.408;2023-03-13T14:05:53;99049.97;;;20.08;54.46
69173;BME280;56280;49.662;8.408;2023-03-13T14:08:23;99061.50;;;20.15;54.41
69173;BME280;56280;49.662;8.408;2023-03-13T14:13:29;99035.03;;;20.49;53.62
69173;BME280;56280;49.662;8.408;2023-03-13T14:15:54;99029.53;;;20.92;52.35
69173;BME280;56280;49.662;8.408;2023-03-13T14:18:28;99016.72;;;20.88;52.34
69173;BME280;56280;49.662;8.408;2023-03-13T14:23:30;99020.84;;;20.90;52.38
69173;BME280;56280;49.662;8.408;2023-03-13T14:25:55;98995.53;;;20.91;51.30
69173;BME280;56280;49.662;8.408;2023-03-13T14:28:26;98998.66;;;21.19;51.68
69173;BME280;56280;49.662;8.408;2023-03-13T14:30:55;98976.34;;;21.11;51.02
69173;BME280;56280;49.662;8.408;2023-03-13T14:33:21;98965.94;;;21.27;50.97